Weather at Morden Airport

Public forecast

Using degrees Celsius for public forecast. Weather courtesy of forecast.io.

Closest aviation weather report (METAR) to Morden Airport

Closest report is Walhalla Municipal Airport, 17.3 nm (32.1 km) SSE. Retrieved 2020/10/01 04:35 UTC (0 seconds ago):

K96D 010435Z AUTO 34016G24KT 10SM BKN017 BKN021 BKN027 06/07 A3012 RMK AO2

Closest aviation forecast (TAF) to Morden Airport

Forecast is more than 6 hours old.

Closest forecast is Portage-la-Prairie / Southport Airport, 42.4 nm (78.6 km) NNW. Retrieved 2020/09/30 18:33 UTC (10 hours ago):

TAF CYPG 301730Z 3018/0106 32020G30KT P6SM FEW040 OVC080 TEMPO 3018/0106 P6SM -SHRA BKN025 OVC040 BECMG 0103/0105 35015G25KT RMK NXT FCST BY 010000Z